createdAt,value
2022-08-19T00:01:04.235Z,7.25
2022-08-19T00:03:52.822Z,6.80
2022-08-19T00:06:44.805Z,6.50
2022-08-19T00:09:33.873Z,9.32
2022-08-19T00:12:22.543Z,7.13
2022-08-19T00:15:14.929Z,7.30
2022-08-19T00:18:03.459Z,8.85
2022-08-19T00:20:52.215Z,8.00
2022-08-19T00:23:42.640Z,7.20
2022-08-19T00:26:31.103Z,9.82
2022-08-19T00:29:22.234Z,8.50
2022-08-19T00:32:10.983Z,8.93
2022-08-19T00:35:02.520Z,9.00
2022-08-19T00:37:51.871Z,7.70
2022-08-19T00:40:42.132Z,7.90
2022-08-19T00:43:31.024Z,8.23
2022-08-19T00:46:19.598Z,8.38
2022-08-19T00:49:12.360Z,8.07
2022-08-19T00:52:05.659Z,13.55
2022-08-19T00:54:54.948Z,7.75
2022-08-19T00:57:48.955Z,8.60
2022-08-19T01:00:38.434Z,8.30
2022-08-19T01:03:27.073Z,8.50
2022-08-19T01:06:15.699Z,9.68
2022-08-19T01:09:08.637Z,8.07
2022-08-19T01:11:57.387Z,8.38
2022-08-19T01:14:47.580Z,9.38
2022-08-19T01:17:36.467Z,9.27
2022-08-19T01:20:25.938Z,9.40
2022-08-19T01:23:16.161Z,10.18
2022-08-19T01:26:04.707Z,10.80
2022-08-19T01:28:57.372Z,9.88
2022-08-19T01:31:48.220Z,9.95
2022-08-19T01:34:36.931Z,9.63
2022-08-19T01:37:27.189Z,13.40
2022-08-19T01:40:17.684Z,9.35
2022-08-19T01:43:06.917Z,9.40
2022-08-19T01:45:55.443Z,9.35
2022-08-19T01:48:45.787Z,8.93
2022-08-19T01:51:39.649Z,11.93
2022-08-19T01:54:28.929Z,10.93
2022-08-19T01:57:18.775Z,8.00
2022-08-19T02:00:09.469Z,10.40
2022-08-19T02:02:58.339Z,8.57
2022-08-19T02:05:51.196Z,8.90
2022-08-19T02:08:42.015Z,10.05
2022-08-19T02:11:36.623Z,9.18
2022-08-19T02:14:26.448Z,9.27
2022-08-19T02:17:15.018Z,9.98
2022-08-19T02:20:03.616Z,9.25
2022-08-19T02:22:52.609Z,8.30
2022-08-19T02:25:41.529Z,8.60
2022-08-19T02:28:30.212Z,10.55
2022-08-19T02:31:23.529Z,9.40
2022-08-19T02:34:14.209Z,9.30
2022-08-19T02:37:03.842Z,9.65
2022-08-19T02:39:51.727Z,11.52
2022-08-19T02:42:40.474Z,10.07
2022-08-19T02:45:29.070Z,8.38
2022-08-19T02:48:21.541Z,11.45
2022-08-19T02:51:10.517Z,9.23
2022-08-19T02:53:59.834Z,15.90
2022-08-19T02:56:48.409Z,10.32
2022-08-19T02:59:36.934Z,11.32
2022-08-19T03:02:25.495Z,8.30
2022-08-19T03:05:15.375Z,9.23
2022-08-19T03:08:04.522Z,8.15
2022-08-19T03:10:54.020Z,9.38
2022-08-19T03:13:44.144Z,8.65
2022-08-19T03:16:34.877Z,10.43
2022-08-19T03:19:23.632Z,10.35
2022-08-19T03:22:13.645Z,9.38
2022-08-19T03:25:02.211Z,8.82
2022-08-19T03:27:50.623Z,11.07
2022-08-19T03:30:40.508Z,10.07
2022-08-19T03:33:33.271Z,11.10
2022-08-19T03:36:25.433Z,10.80
2022-08-19T03:39:17.228Z,10.18
2022-08-19T03:42:38.841Z,10.05
2022-08-19T03:45:14.897Z,9.50
2022-08-19T03:48:03.430Z,10.52
2022-08-19T03:50:52.070Z,11.35
2022-08-19T03:53:40.609Z,9.52
2022-08-19T03:56:30.636Z,9.70
2022-08-19T03:59:22.136Z,13.80
2022-08-19T04:02:13.086Z,9.85
2022-08-19T04:05:01.652Z,8.20
2022-08-19T04:07:50.238Z,9.38
2022-08-19T04:10:39.217Z,9.25
2022-08-19T04:13:29.073Z,10.50
2022-08-19T04:16:17.657Z,10.93
2022-08-19T04:19:07.604Z,11.20
2022-08-19T04:21:56.938Z,12.27
2022-08-19T04:24:45.461Z,11.23
2022-08-19T04:27:34.376Z,9.57
2022-08-19T04:30:24.452Z,10.95
2022-08-19T04:33:14.131Z,11.90
2022-08-19T04:36:02.572Z,9.32
2022-08-19T04:38:51.431Z,10.40
2022-08-19T04:41:54.149Z,8.93
2022-08-19T04:44:46.385Z,11.85
2022-08-19T04:47:47.877Z,11.75
2022-08-19T04:50:46.013Z,13.23
2022-08-19T04:53:37.794Z,10.80
2022-08-19T04:56:27.589Z,10.82
2022-08-19T04:59:16.969Z,10.70
2022-08-19T05:02:06.992Z,9.35
2022-08-19T05:05:01.938Z,8.60
2022-08-19T05:07:50.495Z,11.05
2022-08-19T05:10:39.624Z,11.32
2022-08-19T05:13:29.009Z,8.25
2022-08-19T05:16:19.674Z,8.43
2022-08-19T05:19:37.483Z,8.45
2022-08-19T05:22:39.607Z,7.32
2022-08-19T05:25:28.082Z,9.32
2022-08-19T05:28:16.551Z,12.30
2022-08-19T05:31:05.054Z,8.65
2022-08-19T05:33:53.535Z,6.65
2022-08-19T05:36:46.069Z,9.23
2022-08-19T05:39:38.255Z,7.00
2022-08-19T05:42:27.489Z,8.90
2022-08-19T05:45:16.132Z,6.28
2022-08-19T05:48:05.001Z,8.15
2022-08-19T05:50:53.466Z,6.20
2022-08-19T05:53:41.955Z,6.97
2022-08-19T05:56:32.420Z,7.60
2022-08-19T05:59:22.439Z,5.80
2022-08-19T06:02:14.530Z,8.52
2022-08-19T06:05:03.658Z,6.45
2022-08-19T06:07:52.183Z,5.88
2022-08-19T06:10:40.834Z,5.97
2022-08-19T06:13:33.292Z,5.85
2022-08-19T06:16:24.276Z,5.88
2022-08-19T06:19:15.520Z,5.97
2022-08-19T06:22:04.283Z,5.60
2022-08-19T06:24:53.599Z,5.15
2022-08-19T06:28:11.552Z,5.65
2022-08-19T06:30:52.550Z,5.32
2022-08-19T06:33:41.073Z,5.03
2022-08-19T06:36:32.726Z,5.63
2022-08-19T06:39:23.269Z,4.68
2022-08-19T06:42:17.133Z,6.55
2022-08-19T06:45:09.631Z,4.93
2022-08-19T06:48:00.090Z,5.78
2022-08-19T06:50:52.465Z,6.72
2022-08-19T06:53:41.478Z,5.57
2022-08-19T06:56:34.601Z,4.60
2022-08-19T06:59:28.178Z,4.82
2022-08-19T07:05:11.994Z,6.15
2022-08-19T07:08:04.968Z,4.78
2022-08-19T07:10:53.734Z,4.43
2022-08-19T07:13:44.336Z,6.70
2022-08-19T07:16:33.044Z,5.38
2022-08-19T07:19:22.050Z,5.78
2022-08-19T07:22:13.112Z,4.97
2022-08-19T07:25:03.770Z,5.35
2022-08-19T07:27:54.414Z,5.47
2022-08-19T07:30:43.220Z,5.22
2022-08-19T07:33:33.552Z,5.32
2022-08-19T07:36:25.335Z,5.78
2022-08-19T07:39:19.393Z,5.65
2022-08-19T07:42:10.857Z,5.00
2022-08-19T07:45:02.135Z,6.05
2022-08-19T07:47:51.334Z,5.15
2022-08-19T07:50:39.958Z,5.00
2022-08-19T07:53:28.570Z,5.47
2022-08-19T07:56:19.486Z,6.50
2022-08-19T07:59:08.789Z,5.18
2022-08-19T08:02:00.622Z,6.00
2022-08-19T08:05:06.792Z,5.53
2022-08-19T08:08:13.221Z,5.65
2022-08-19T08:11:01.700Z,5.65
2022-08-19T08:14:01.084Z,5.10
2022-08-19T08:16:53.679Z,7.07
2022-08-19T08:19:43.116Z,4.95
2022-08-19T08:22:49.760Z,5.78
2022-08-19T08:25:38.889Z,6.78
2022-08-19T08:28:29.571Z,6.53
2022-08-19T08:31:20.566Z,5.35
2022-08-19T08:34:09.805Z,5.05
2022-08-19T08:36:58.285Z,4.60
2022-08-19T08:39:46.856Z,5.15
2022-08-19T08:42:38.808Z,4.75
2022-08-19T08:45:27.329Z,4.60
2022-08-19T08:48:26.931Z,5.15
2022-08-19T08:51:20.404Z,4.55
2022-08-19T08:54:13.633Z,4.65
2022-08-19T08:57:02.204Z,4.90
2022-08-19T08:59:52.716Z,4.55
2022-08-19T09:02:43.537Z,4.78
2022-08-19T09:05:56.930Z,4.65
2022-08-19T09:08:52.272Z,5.22
2022-08-19T09:11:52.207Z,5.22
2022-08-19T09:14:50.852Z,4.65
2022-08-19T09:17:40.577Z,5.18
2022-08-19T09:20:29.077Z,4.03
2022-08-19T09:23:18.972Z,5.20
2022-08-19T09:26:17.272Z,4.45
2022-08-19T09:29:09.919Z,4.43
2022-08-19T09:31:58.499Z,4.70
2022-08-19T09:34:50.836Z,4.20
2022-08-19T09:37:40.347Z,4.90
2022-08-19T09:40:32.642Z,6.00
2022-08-19T09:43:32.913Z,4.82
2022-08-19T09:46:22.929Z,5.00
2022-08-19T09:49:12.443Z,5.18
2022-08-19T09:52:02.381Z,5.30
2022-08-19T09:54:55.045Z,6.00
2022-08-19T09:57:44.852Z,4.72
2022-08-19T10:00:33.311Z,5.07
2022-08-19T10:03:21.794Z,5.85
2022-08-19T10:06:15.120Z,5.10
2022-08-19T10:09:09.039Z,4.50
2022-08-19T10:11:57.714Z,5.20
2022-08-19T10:14:48.114Z,4.95
2022-08-19T10:17:37.088Z,5.15
2022-08-19T10:20:26.013Z,4.72
2022-08-19T10:23:14.907Z,5.60
2022-08-19T10:26:07.107Z,4.80
2022-08-19T10:28:56.043Z,4.68
2022-08-19T10:32:01.253Z,4.97
2022-08-19T10:34:52.858Z,4.32
2022-08-19T10:37:57.040Z,7.35
2022-08-19T10:40:46.169Z,5.07
2022-08-19T10:43:35.520Z,4.50
2022-08-19T10:46:25.357Z,4.03
2022-08-19T10:49:16.161Z,5.10
2022-08-19T10:52:32.577Z,4.72
2022-08-19T10:55:41.225Z,3.67
2022-08-19T10:58:29.686Z,3.55
2022-08-19T11:01:18.254Z,5.03
2022-08-19T11:04:09.943Z,4.00
2022-08-19T11:06:59.977Z,3.88
2022-08-19T11:09:48.561Z,4.18
2022-08-19T11:12:40.142Z,5.22
2022-08-19T11:15:29.699Z,4.20
2022-08-19T11:18:18.506Z,4.95
2022-08-19T11:21:15.340Z,4.43
2022-08-19T11:24:07.550Z,9.02
2022-08-19T11:26:59.903Z,4.38
2022-08-19T11:29:48.391Z,4.68
2022-08-19T11:32:36.871Z,4.57
2022-08-19T11:35:25.891Z,4.57
2022-08-19T11:38:15.596Z,4.65
2022-08-19T11:41:08.211Z,4.88
2022-08-19T11:43:57.491Z,5.05
2022-08-19T11:46:47.456Z,4.90
2022-08-19T11:49:37.256Z,4.53
2022-08-19T11:52:26.410Z,5.47
2022-08-19T11:55:15.412Z,5.50
2022-08-19T11:58:07.341Z,4.97
2022-08-19T12:01:08.880Z,9.15
2022-08-19T12:03:59.061Z,9.50
2022-08-19T12:06:47.591Z,6.97
2022-08-19T12:09:36.319Z,6.53
2022-08-19T12:12:30.651Z,5.47
2022-08-19T12:15:20.401Z,5.63
2022-08-19T12:18:09.484Z,6.65
2022-08-19T12:20:57.988Z,6.78
2022-08-19T12:23:47.377Z,6.70
2022-08-19T12:26:52.381Z,6.28
2022-08-19T12:29:42.495Z,6.78
2022-08-19T12:32:32.461Z,8.07
2022-08-19T12:35:22.156Z,7.40
2022-08-19T12:38:10.831Z,7.85
2022-08-19T12:41:00.405Z,7.45
2022-08-19T12:43:50.127Z,8.73
2022-08-19T12:46:38.597Z,7.47
2022-08-19T12:49:52.814Z,8.23
2022-08-19T12:52:43.470Z,7.78
2022-08-19T12:55:32.781Z,7.63
2022-08-19T12:58:24.256Z,8.55
2022-08-19T13:01:18.242Z,8.13
2022-08-19T13:04:11.379Z,7.68
2022-08-19T13:07:01.301Z,7.60
2022-08-19T13:09:49.945Z,7.50
2022-08-19T13:12:38.441Z,7.82
2022-08-19T13:15:29.411Z,7.78
2022-08-19T13:18:17.864Z,9.25
2022-08-19T13:21:07.124Z,8.73
2022-08-19T13:23:57.283Z,7.93
2022-08-19T13:26:45.840Z,7.72
2022-08-19T13:29:52.052Z,8.98
2022-08-19T13:32:57.951Z,7.97
2022-08-19T13:35:49.229Z,11.60
2022-08-19T13:38:38.828Z,12.32
2022-08-19T13:41:29.114Z,14.45
2022-08-19T13:44:19.160Z,12.57
2022-08-19T13:47:09.195Z,13.40
2022-08-19T13:49:57.713Z,14.25
2022-08-19T13:52:46.523Z,12.68
2022-08-19T13:55:35.355Z,13.05
2022-08-19T13:58:25.174Z,13.68
2022-08-19T14:01:13.671Z,15.27
2022-08-19T14:04:02.254Z,13.35
2022-08-19T14:06:50.726Z,16.15
2022-08-19T14:09:39.230Z,16.48
2022-08-19T14:12:28.226Z,15.52
2022-08-19T14:15:19.071Z,17.13
2022-08-19T14:18:07.737Z,16.38
2022-08-19T14:20:57.200Z,15.73
2022-08-19T14:23:47.514Z,16.30
2022-08-19T14:26:36.026Z,15.90
2022-08-19T14:29:24.828Z,19.52
2022-08-19T14:32:16.744Z,18.30
2022-08-19T14:35:06.421Z,15.90
2022-08-19T14:37:56.728Z,17.27
2022-08-19T14:40:45.611Z,17.35
2022-08-19T14:43:34.280Z,15.70
2022-08-19T14:46:25.163Z,17.65
2022-08-19T14:49:15.002Z,16.13
2022-08-19T14:52:04.559Z,18.92
2022-08-19T14:54:53.152Z,20.75
2022-08-19T14:57:43.369Z,17.60
2022-08-19T15:00:31.849Z,11.73
2022-08-19T15:03:20.358Z,14.55
2022-08-19T15:06:12.838Z,10.35
2022-08-19T15:09:04.527Z,9.52
2022-08-19T15:11:53.123Z,13.95
2022-08-19T15:14:43.338Z,10.27
2022-08-19T15:17:45.194Z,8.95
2022-08-19T15:20:34.565Z,12.13
2022-08-19T15:23:24.616Z,11.43
2022-08-19T15:26:16.135Z,8.55
2022-08-19T15:29:05.254Z,8.95
2022-08-19T15:31:56.134Z,8.80
2022-08-19T15:34:46.597Z,8.00
2022-08-19T15:37:37.610Z,8.88
2022-08-19T15:40:28.844Z,8.48
2022-08-19T15:43:18.236Z,8.70
2022-08-19T15:46:07.117Z,8.38
2022-08-19T15:48:59.905Z,8.73
2022-08-19T15:51:51.924Z,8.00
2022-08-19T15:54:40.987Z,7.93
2022-08-19T15:57:50.457Z,11.60
2022-08-19T16:00:57.086Z,8.60
2022-08-19T16:04:03.216Z,8.75
2022-08-19T16:06:54.596Z,10.50
2022-08-19T16:09:43.164Z,10.20
2022-08-19T16:12:33.101Z,8.70
2022-08-19T16:15:21.976Z,15.73
2022-08-19T16:18:10.570Z,13.35
2022-08-19T16:20:59.085Z,12.93
2022-08-19T16:23:48.030Z,15.15
2022-08-19T16:26:36.665Z,61.53
2022-08-19T16:29:33.733Z,18.75
2022-08-19T16:32:23.784Z,14.55
2022-08-19T16:35:12.611Z,13.52
2022-08-19T16:38:01.297Z,15.75
2022-08-19T16:40:54.293Z,14.38
2022-08-19T16:43:43.435Z,13.57
2022-08-19T16:46:37.226Z,17.25
2022-08-19T16:49:53.709Z,29.60
2022-08-19T16:52:36.443Z,24.08
2022-08-19T16:55:25.305Z,28.17
2022-08-19T16:58:13.851Z,35.30
2022-08-19T17:01:04.387Z,27.10
2022-08-19T17:03:54.956Z,51.20
2022-08-19T17:06:44.929Z,43.30
2022-08-19T17:09:33.461Z,21.25
2022-08-19T17:12:23.087Z,20.92
2022-08-19T17:15:19.237Z,14.95
2022-08-19T17:18:09.698Z,14.73
2022-08-19T17:21:00.057Z,13.55
2022-08-19T17:23:48.722Z,11.82
2022-08-19T17:26:38.023Z,12.52
2022-08-19T17:29:26.534Z,12.20
2022-08-19T17:32:15.359Z,16.70
2022-08-19T17:35:04.770Z,12.02
2022-08-19T17:37:55.049Z,21.67
2022-08-19T17:40:43.971Z,11.02
2022-08-19T17:43:35.433Z,11.25
2022-08-19T17:46:26.622Z,12.73
2022-08-19T17:49:15.667Z,10.05
2022-08-19T17:52:10.082Z,9.90
2022-08-19T17:55:00.128Z,16.60
2022-08-19T17:57:48.652Z,11.55
2022-08-19T18:00:37.147Z,13.45
2022-08-19T18:03:43.144Z,13.57
2022-08-19T18:06:31.754Z,11.30
2022-08-19T18:09:20.971Z,11.23
2022-08-19T18:12:16.993Z,12.02
2022-08-19T18:15:07.128Z,10.43
2022-08-19T18:17:56.354Z,13.68
2022-08-19T18:20:45.819Z,11.02
2022-08-19T18:23:44.097Z,11.55
2022-08-19T18:26:34.914Z,10.70
2022-08-19T18:29:24.956Z,11.25
2022-08-19T18:32:13.840Z,9.68
2022-08-19T18:35:03.114Z,11.98
2022-08-19T18:37:51.709Z,8.77
2022-08-19T18:40:57.978Z,10.20
2022-08-19T18:44:04.175Z,12.68
2022-08-19T18:47:12.032Z,12.82
2022-08-19T18:50:07.724Z,12.20
2022-08-19T18:52:56.252Z,15.27
2022-08-19T18:55:49.481Z,10.77
2022-08-19T18:58:39.610Z,15.50
2022-08-19T19:01:30.835Z,12.27
2022-08-19T19:04:24.233Z,12.77
2022-08-19T19:07:14.201Z,12.13
2022-08-19T19:10:02.852Z,17.30
2022-08-19T19:12:51.455Z,14.63
2022-08-19T19:15:43.428Z,18.65
2022-08-19T19:18:34.354Z,15.15
2022-08-19T19:21:26.447Z,15.43
2022-08-19T19:24:16.741Z,13.20
2022-08-19T19:27:08.372Z,15.52
2022-08-19T19:29:57.436Z,16.35
2022-08-19T19:32:45.970Z,16.48
2022-08-19T19:35:34.552Z,16.20
2022-08-19T19:38:24.583Z,18.05
2022-08-19T19:41:14.226Z,20.42
2022-08-19T19:44:30.028Z,17.45
2022-08-19T19:47:13.104Z,15.75
2022-08-19T19:50:17.824Z,17.30
2022-08-19T19:53:06.415Z,14.73
2022-08-19T19:55:58.847Z,16.38
2022-08-19T19:58:50.402Z,13.57
2022-08-19T20:01:39.534Z,18.83
2022-08-19T20:04:32.868Z,13.20
2022-08-19T20:07:42.640Z,16.90
2022-08-19T20:10:31.867Z,16.65
2022-08-19T20:13:22.188Z,15.85
2022-08-19T20:16:10.836Z,18.55
2022-08-19T20:19:00.595Z,13.85
2022-08-19T20:21:51.496Z,19.40
2022-08-19T20:24:42.384Z,14.18
2022-08-19T20:27:37.157Z,13.82
2022-08-19T20:30:32.113Z,12.02
2022-08-19T20:33:21.782Z,12.85
2022-08-19T20:36:10.455Z,12.38
2022-08-19T20:38:59.590Z,13.18
2022-08-19T20:41:48.824Z,13.57
2022-08-19T20:44:37.985Z,12.80
2022-08-19T20:47:29.596Z,12.57
2022-08-19T20:50:18.778Z,14.80
2022-08-19T20:53:16.241Z,12.25
2022-08-19T20:56:05.196Z,12.30
2022-08-19T20:58:57.949Z,14.77
2022-08-19T21:01:48.869Z,15.20
2022-08-19T21:04:38.933Z,11.82
2022-08-19T21:07:39.155Z,17.70
2022-08-19T21:10:28.194Z,13.70
2022-08-19T21:13:17.668Z,15.02
2022-08-19T21:16:09.502Z,16.15
2022-08-19T21:18:58.026Z,13.98
2022-08-19T21:21:47.909Z,12.82
2022-08-19T21:24:36.646Z,11.90
2022-08-19T21:27:25.132Z,18.30
2022-08-19T21:30:14.757Z,13.35
2022-08-19T21:33:04.454Z,12.07
2022-08-19T21:35:53.533Z,12.68
2022-08-19T21:38:44.032Z,10.63
2022-08-19T21:41:32.588Z,12.35
2022-08-19T21:44:21.013Z,13.82
2022-08-19T21:47:09.542Z,13.10
2022-08-19T21:49:59.066Z,10.65
2022-08-19T21:52:47.841Z,10.20
2022-08-19T21:55:37.619Z,11.18
2022-08-19T21:58:28.338Z,13.00
2022-08-19T22:01:19.208Z,9.90
2022-08-19T22:04:07.699Z,12.40
2022-08-19T22:06:56.191Z,13.60
2022-08-19T22:09:46.464Z,13.23
2022-08-19T22:12:39.265Z,12.02
2022-08-19T22:15:41.053Z,11.48
2022-08-19T22:18:29.527Z,10.65
2022-08-19T22:21:22.621Z,11.43
2022-08-19T22:24:28.547Z,11.05
2022-08-19T22:27:17.007Z,11.38
2022-08-19T22:30:10.142Z,13.80
2022-08-19T22:33:00.824Z,10.93
2022-08-19T22:35:49.611Z,10.13
2022-08-19T22:38:38.432Z,11.05
2022-08-19T22:41:27.581Z,12.45
2022-08-19T22:44:16.051Z,11.98
2022-08-19T22:47:06.373Z,12.07
2022-08-19T22:49:54.995Z,10.52
2022-08-19T22:52:51.740Z,10.20
2022-08-19T22:55:40.992Z,12.07
2022-08-19T22:58:29.789Z,11.02
2022-08-19T23:01:27.368Z,11.55
2022-08-19T23:04:19.985Z,11.20
2022-08-19T23:07:09.335Z,12.25
2022-08-19T23:09:58.003Z,15.60
2022-08-19T23:12:49.332Z,13.40
2022-08-19T23:15:38.348Z,14.15
2022-08-19T23:18:26.968Z,14.82
2022-08-19T23:21:16.828Z,14.73
2022-08-19T23:24:06.562Z,12.25
2022-08-19T23:27:13.059Z,14.88
2022-08-19T23:30:18.943Z,14.23
2022-08-19T23:33:14.756Z,16.38
2022-08-19T23:36:07.562Z,15.10
2022-08-19T23:38:57.900Z,14.95
2022-08-19T23:41:46.430Z,13.52
2022-08-19T23:44:34.966Z,14.68
2022-08-19T23:47:41.359Z,13.73
2022-08-19T23:50:29.877Z,16.90
2022-08-19T23:53:18.425Z,13.45
2022-08-19T23:56:09.457Z,11.55
2022-08-19T23:58:59.279Z,15.68
